Time;durP1;ratioP1;P1;durP2;ratioP2;P2;SDS_P1;SDS_P2;PMS_P1;PMS_P2;Temp;Humidity;BMP_temperature;BMP_pressure;BME280_temperature;BME280_humidity;BME280_pressure;Samples;Min_cycle;Max_cycle;Signal;HPM_P1;HPM_P2
2023/01/22 00:01:16;;;;;;;15.48;10.90;;;-0.60;99.90;;;;;;5032172;28;20594;-67
2023/01/22 00:03:42;;;;;;;12.52;9.98;;;-0.60;99.90;;;;;;5014992;28;20052;-67
2023/01/22 00:06:10;;;;;;;13.95;10.52;;;-0.40;99.90;;;;;;5029946;28;20112;-67
2023/01/22 00:08:36;;;;;;;14.10;10.73;;;-0.40;99.90;;;;;;5048990;28;20091;-67
2023/01/22 00:11:03;;;;;;;17.25;10.63;;;-0.30;99.90;;;;;;5049355;28;20695;-67
2023/01/22 00:13:29;;;;;;;14.55;10.57;;;-0.30;99.90;;;;;;5027812;28;20052;-67
2023/01/22 00:15:58;;;;;;;14.50;9.98;;;-0.20;99.90;;;;;;5046970;28;20106;-67
2023/01/22 00:18:25;;;;;;;14.60;10.40;;;-0.30;99.90;;;;;;5049032;28;20430;-67
2023/01/22 00:20:52;;;;;;;13.27;10.10;;;-0.20;99.90;;;;;;5029747;28;20492;-67
2023/01/22 00:23:19;;;;;;;15.82;10.20;;;-0.20;99.90;;;;;;5044770;28;20048;-67
2023/01/22 00:25:45;;;;;;;14.00;10.02;;;-0.30;99.90;;;;;;5046100;28;20041;-67
2023/01/22 00:28:11;;;;;;;13.52;10.18;;;-0.30;99.90;;;;;;5030966;28;20052;-67
2023/01/22 00:30:38;;;;;;;13.32;9.75;;;-0.30;99.90;;;;;;5045241;28;20048;-67
2023/01/22 00:33:04;;;;;;;14.85;10.25;;;-0.20;99.90;;;;;;5048853;28;20085;-67
2023/01/22 00:35:29;;;;;;;16.55;10.70;;;-0.30;99.90;;;;;;5047525;28;20102;-67
2023/01/22 00:37:55;;;;;;;16.90;11.15;;;-0.20;99.90;;;;;;5046120;28;20166;-67
2023/01/22 00:40:21;;;;;;;17.00;10.32;;;-0.20;99.90;;;;;;5027564;28;20041;-67
2023/01/22 00:42:47;;;;;;;16.17;10.82;;;-0.20;99.90;;;;;;5031207;28;20048;-67
2023/01/22 00:45:13;;;;;;;15.23;10.20;;;-0.20;99.90;;;;;;5029373;28;20037;-68
2023/01/22 00:47:40;;;;;;;15.13;10.80;;;-0.20;99.90;;;;;;5049827;28;20082;-67
2023/01/22 00:50:06;;;;;;;15.98;11.70;;;-0.20;99.90;;;;;;5023992;28;20037;-67
2023/01/22 00:52:32;;;;;;;15.13;11.48;;;-0.20;99.90;;;;;;5029799;28;20041;-67
2023/01/22 00:54:58;;;;;;;18.33;11.63;;;-0.20;99.90;;;;;;5015627;28;20033;-67
2023/01/22 00:57:24;;;;;;;17.23;11.75;;;-0.10;99.90;;;;;;5032055;28;20417;-67
2023/01/22 00:59:51;;;;;;;19.60;12.77;;;-0.20;99.90;;;;;;5032382;28;20075;-67
2023/01/22 01:02:17;;;;;;;16.08;11.85;;;-0.20;99.90;;;;;;5047765;28;20037;-67
2023/01/22 01:04:42;;;;;;;20.20;13.52;;;-0.20;99.90;;;;;;5031752;28;20388;-67
2023/01/22 01:07:08;;;;;;;21.23;13.68;;;-0.30;99.90;;;;;;5050346;28;20041;-67
2023/01/22 01:09:34;;;;;;;16.00;12.40;;;-0.20;99.90;;;;;;5013755;28;20148;-67
2023/01/22 01:12:00;;;;;;;18.60;13.32;;;-0.30;99.90;;;;;;5031072;28;20038;-67
2023/01/22 01:14:26;;;;;;;24.25;14.38;;;-0.30;99.90;;;;;;5050740;28;20063;-67
2023/01/22 01:16:52;;;;;;;21.75;14.75;;;-0.30;99.90;;;;;;5051796;28;20045;-67
2023/01/22 01:19:21;;;;;;;20.60;14.63;;;-0.30;99.90;;;;;;5015222;28;20047;-68
2023/01/22 01:21:47;;;;;;;23.73;15.32;;;-0.30;99.90;;;;;;5031634;28;20063;-67
2023/01/22 01:24:13;;;;;;;25.35;15.98;;;-0.30;99.90;;;;;;5032110;28;20037;-67
2023/01/22 01:26:40;;;;;;;22.05;15.60;;;-0.40;99.90;;;;;;5031729;28;20079;-67
2023/01/22 01:29:08;;;;;;;21.88;15.65;;;-0.40;99.90;;;;;;5031791;28;20388;-67
2023/01/22 01:31:35;;;;;;;25.90;15.70;;;-0.40;99.90;;;;;;5027337;28;20657;-67
2023/01/22 01:34:02;;;;;;;23.27;15.38;;;-0.40;99.90;;;;;;5050672;28;20037;-67
2023/01/22 01:36:29;;;;;;;24.35;15.85;;;-0.40;99.90;;;;;;5050431;28;20037;-67
2023/01/22 01:38:55;;;;;;;23.90;16.65;;;-0.40;99.90;;;;;;5028443;28;20049;-67
2023/01/22 01:41:24;;;;;;;23.00;15.93;;;-0.50;99.90;;;;;;5050175;28;20465;-67
2023/01/22 01:44:09;;;;;;;23.45;15.30;;;-0.50;99.90;;;;;;5050388;28;20095;-67
2023/01/22 01:46:41;;;;;;;23.38;15.23;;;-0.50;99.90;;;;;;5049546;28;20049;-67
2023/01/22 01:49:24;;;;;;;23.52;15.90;;;-0.60;99.90;;;;;;5048768;28;20500;-67
2023/01/22 01:51:52;;;;;;;21.63;15.18;;;-0.60;99.90;;;;;;5047725;28;20071;-67
2023/01/22 01:54:18;;;;;;;20.65;14.18;;;-0.70;99.90;;;;;;5032600;28;20048;-67
2023/01/22 01:56:48;;;;;;;23.75;15.15;;;-0.70;99.90;;;;;;5050239;28;20037;-67
2023/01/22 01:59:16;;;;;;;23.05;15.75;;;-0.60;99.90;;;;;;5046522;28;20126;-67
2023/01/22 02:01:47;;;;;;;22.77;15.13;;;-0.60;99.90;;;;;;5032266;28;20365;-64
2023/01/22 02:04:13;;;;;;;23.83;15.18;;;-0.60;99.90;;;;;;5045646;28;20120;-64
2023/01/22 02:06:40;;;;;;;22.15;14.43;;;-0.60;99.90;;;;;;5044782;28;20468;-65
2023/01/22 02:09:06;;;;;;;19.73;14.35;;;-0.60;99.90;;;;;;5050449;28;20063;-64
2023/01/22 02:11:32;;;;;;;22.08;15.10;;;-0.60;99.90;;;;;;5031603;28;20446;-65
2023/01/22 02:14:05;;;;;;;25.08;15.88;;;-0.60;99.90;;;;;;5029363;28;20063;-65
2023/01/22 02:16:31;;;;;;;20.08;13.63;;;-0.50;99.90;;;;;;5050028;28;20064;-65
2023/01/22 02:18:57;;;;;;;19.65;13.88;;;-0.50;99.90;;;;;;5047238;28;20056;-65
2023/01/22 02:21:41;;;;;;;18.83;13.05;;;-0.50;99.90;;;;;;5049299;28;20170;-65
2023/01/22 02:24:13;;;;;;;22.10;13.43;;;-0.40;99.90;;;;;;5047560;28;20041;-65
2023/01/22 02:26:40;;;;;;;18.67;12.98;;;-0.40;99.90;;;;;;5032042;28;20253;-65
2023/01/22 02:29:08;;;;;;;20.90;13.20;;;-0.30;99.90;;;;;;5050042;28;20115;-65
2023/01/22 02:31:36;;;;;;;20.77;13.13;;;-0.30;99.90;;;;;;5047997;28;20119;-65
2023/01/22 02:34:02;;;;;;;18.90;12.80;;;-0.20;99.90;;;;;;5012298;28;20048;-65
2023/01/22 02:36:29;;;;;;;20.38;12.98;;;-0.10;99.90;;;;;;5049309;28;20473;-65
2023/01/22 02:38:55;;;;;;;18.00;12.95;;;-0.10;99.90;;;;;;5047193;28;20045;-64
2023/01/22 02:41:20;;;;;;;15.77;12.25;;;0.00;99.90;;;;;;5030709;28;20045;-64
2023/01/22 02:43:46;;;;;;;19.00;12.55;;;0.00;99.90;;;;;;5034224;28;20090;-65
2023/01/22 02:46:12;;;;;;;17.35;12.07;;;0.00;99.90;;;;;;5045603;28;20132;-65
2023/01/22 02:48:37;;;;;;;21.98;12.85;;;0.10;99.90;;;;;;5027574;28;20045;-65
2023/01/22 02:51:04;;;;;;;23.55;12.90;;;0.10;99.90;;;;;;5049869;28;20068;-64
2023/01/22 02:53:30;;;;;;;20.10;12.48;;;0.10;99.90;;;;;;5031914;28;20055;-65
2023/01/22 02:55:55;;;;;;;18.90;11.77;;;0.20;99.90;;;;;;5050174;28;20112;-64
2023/01/22 02:58:21;;;;;;;14.43;10.80;;;0.20;99.90;;;;;;5049595;28;20049;-65
2023/01/22 03:00:47;;;;;;;15.52;10.75;;;0.30;99.90;;;;;;5031800;28;20699;-64
2023/01/22 03:03:15;;;;;;;13.52;10.00;;;0.30;99.90;;;;;;5049854;28;20473;-66
2023/01/22 03:05:49;;;;;;;13.98;9.93;;;0.30;99.90;;;;;;5046897;28;20047;-64
2023/01/22 03:08:15;;;;;;;12.45;9.82;;;0.40;99.90;;;;;;5029995;28;20427;-64
2023/01/22 03:10:41;;;;;;;12.68;9.52;;;0.40;99.90;;;;;;5049520;28;20689;-65
2023/01/22 03:21:19;;;;;;;12.73;8.30;;;0.50;99.90;;;;;;5047498;28;20488;-65
2023/01/22 03:23:47;;;;;;;13.00;8.85;;;0.60;99.90;;;;;;5044674;28;20037;-65
2023/01/22 03:26:14;;;;;;;10.63;8.65;;;0.60;99.90;;;;;;5028807;28;20041;-64
2023/01/22 03:28:40;;;;;;;11.57;8.55;;;0.60;99.90;;;;;;5047594;28;20049;-65
2023/01/22 03:31:06;;;;;;;10.35;8.40;;;0.60;99.90;;;;;;5048799;28;20059;-64
2023/01/22 03:33:32;;;;;;;12.35;7.75;;;0.60;99.90;;;;;;5030550;28;20197;-65
2023/01/22 03:36:02;;;;;;;9.90;7.15;;;0.60;99.90;;;;;;5026216;28;20044;-65
2023/01/22 03:38:28;;;;;;;9.73;7.40;;;0.60;99.90;;;;;;5046391;28;20033;-65
2023/01/22 03:41:01;;;;;;;13.98;7.97;;;0.70;99.90;;;;;;5028733;28;20103;-64
2023/01/22 03:43:27;;;;;;;10.20;7.60;;;0.70;99.90;;;;;;5045261;28;20046;-65
2023/01/22 03:45:53;;;;;;;12.02;8.10;;;0.70;99.90;;;;;;5029086;28;20446;-65
2023/01/22 03:48:18;;;;;;;9.70;7.32;;;0.70;99.90;;;;;;5045297;28;20033;-64
2023/01/22 03:50:44;;;;;;;11.77;7.57;;;0.70;99.90;;;;;;5030076;28;20040;-65
2023/01/22 03:53:10;;;;;;;12.80;7.43;;;0.70;99.90;;;;;;5030785;28;20040;-65
2023/01/22 03:55:35;;;;;;;10.05;6.90;;;0.70;99.90;;;;;;5027306;28;20048;-64
2023/01/22 03:58:01;;;;;;;9.93;6.60;;;0.70;99.90;;;;;;5048651;28;20120;-65
2023/01/22 04:00:28;;;;;;;12.05;7.70;;;0.70;99.90;;;;;;5029332;28;20068;-65
2023/01/22 04:02:53;;;;;;;7.43;6.10;;;0.70;99.90;;;;;;5048926;28;20033;-64
2023/01/22 04:05:19;;;;;;;8.82;6.55;;;0.70;99.90;;;;;;5048252;28;20542;-64
2023/01/22 04:07:45;;;;;;;10.15;6.95;;;0.70;99.90;;;;;;5014376;28;20052;-65
2023/01/22 04:10:10;;;;;;;7.95;6.15;;;0.80;99.90;;;;;;5028026;28;20044;-65
2023/01/22 04:12:36;;;;;;;9.23;6.00;;;0.80;99.90;;;;;;5048425;28;20480;-65
2023/01/22 04:15:02;;;;;;;9.93;7.00;;;0.80;99.90;;;;;;5049305;28;20039;-65
2023/01/22 04:17:28;;;;;;;10.55;6.57;;;0.80;99.90;;;;;;5048883;28;20091;-64
2023/01/22 04:19:53;;;;;;;8.45;5.63;;;0.80;99.90;;;;;;5051134;28;20090;-64
2023/01/22 04:22:19;;;;;;;8.75;6.57;;;0.80;99.90;;;;;;5048703;28;20084;-64
2023/01/22 04:24:45;;;;;;;8.63;6.75;;;0.80;99.90;;;;;;5051682;28;20079;-64
2023/01/22 04:27:10;;;;;;;10.07;6.82;;;0.80;99.90;;;;;;5051236;28;20065;-64
2023/01/22 04:29:36;;;;;;;7.97;6.53;;;0.80;99.90;;;;;;5033843;28;20045;-65
2023/01/22 04:32:02;;;;;;;7.45;6.30;;;0.80;99.90;;;;;;5049865;28;20068;-64
2023/01/22 04:34:27;;;;;;;7.72;6.20;;;0.80;99.90;;;;;;5050560;28;20033;-64
2023/01/22 04:36:53;;;;;;;8.73;6.97;;;0.80;99.90;;;;;;5050332;28;20044;-64
2023/01/22 04:39:19;;;;;;;6.72;5.35;;;0.80;99.90;;;;;;5046071;28;20060;-65
2023/01/22 04:41:44;;;;;;;8.70;6.00;;;0.80;99.90;;;;;;5052174;28;20116;-64
2023/01/22 04:44:10;;;;;;;7.88;5.80;;;0.80;99.90;;;;;;5052516;28;20445;-64
2023/01/22 04:46:36;;;;;;;8.45;6.03;;;0.90;99.90;;;;;;5050578;28;20198;-65
2023/01/22 04:49:02;;;;;;;9.70;6.07;;;0.90;99.90;;;;;;5050093;28;20044;-65
2023/01/22 04:51:27;;;;;;;6.40;5.78;;;0.90;99.90;;;;;;5051432;28;20032;-65
2023/01/22 04:53:53;;;;;;;5.95;4.82;;;0.90;99.90;;;;;;5050113;28;20044;-65
2023/01/22 04:56:19;;;;;;;9.55;5.72;;;0.90;99.90;;;;;;5033220;28;20068;-65
2023/01/22 04:58:44;;;;;;;8.38;5.78;;;0.90;99.90;;;;;;5032562;28;20045;-65
2023/01/22 05:01:10;;;;;;;8.43;5.80;;;0.90;99.90;;;;;;5051143;28;20504;-64
2023/01/22 05:03:36;;;;;;;8.18;5.63;;;0.90;99.90;;;;;;5029838;28;20122;-65
2023/01/22 05:06:03;;;;;;;7.85;5.70;;;0.90;99.90;;;;;;5050418;28;20195;-64
2023/01/22 05:08:29;;;;;;;7.65;5.20;;;0.90;99.90;;;;;;5044884;28;20496;-64
2023/01/22 05:10:59;;;;;;;8.30;6.05;;;0.90;99.90;;;;;;5032456;28;20066;-65
2023/01/22 05:13:25;;;;;;;8.55;6.13;;;0.90;99.90;;;;;;5049852;28;20136;-64
2023/01/22 05:15:50;;;;;;;8.65;5.90;;;0.90;99.90;;;;;;5033125;28;20116;-65
2023/01/22 05:18:16;;;;;;;7.68;5.35;;;0.90;99.90;;;;;;5048807;28;20040;-65
2023/01/22 05:20:42;;;;;;;7.70;5.53;;;0.90;99.90;;;;;;5046779;28;20069;-65
2023/01/22 05:23:07;;;;;;;9.35;5.60;;;0.90;99.90;;;;;;5048314;28;20408;-64
2023/01/22 05:25:33;;;;;;;8.55;6.53;;;0.90;99.90;;;;;;5049128;28;20045;-65
2023/01/22 05:27:59;;;;;;;8.07;5.95;;;0.90;99.90;;;;;;5030110;28;20037;-65
2023/01/22 05:30:24;;;;;;;7.97;6.30;;;0.90;99.90;;;;;;5014435;28;20178;-64
2023/01/22 05:32:57;;;;;;;8.88;5.85;;;0.90;99.90;;;;;;5050730;28;20646;-65
2023/01/22 05:35:23;;;;;;;7.88;5.80;;;0.90;99.90;;;;;;5051180;28;20398;-65
2023/01/22 05:37:48;;;;;;;8.93;5.47;;;0.90;99.90;;;;;;5012458;28;20125;-65
2023/01/22 05:40:14;;;;;;;9.18;6.03;;;0.80;99.90;;;;;;5049974;28;20659;-65
2023/01/22 05:42:40;;;;;;;10.75;6.22;;;0.90;99.90;;;;;;5032855;28;20036;-64
2023/01/22 05:45:06;;;;;;;8.18;6.15;;;0.80;99.90;;;;;;5033046;28;20465;-64
2023/01/22 05:47:32;;;;;;;7.03;5.18;;;0.80;99.90;;;;;;5048770;28;20065;-64
2023/01/22 05:49:57;;;;;;;9.30;5.38;;;0.80;99.90;;;;;;5032317;28;20547;-64
2023/01/22 05:52:23;;;;;;;8.70;5.68;;;0.80;99.90;;;;;;5046926;28;20076;-65
2023/01/22 05:54:49;;;;;;;8.18;6.45;;;0.80;99.90;;;;;;5050382;28;20136;-64
2023/01/22 05:57:14;;;;;;;6.95;5.95;;;0.80;99.90;;;;;;5050048;28;20380;-65
2023/01/22 05:59:40;;;;;;;8.40;5.78;;;0.80;99.90;;;;;;5031850;28;20056;-65
2023/01/22 06:02:06;;;;;;;7.43;5.32;;;0.70;99.90;;;;;;5050947;28;20025;-64
2023/01/22 06:04:31;;;;;;;9.90;5.90;;;0.70;99.90;;;;;;5045330;28;20531;-65
2023/01/22 06:06:57;;;;;;;6.45;5.45;;;0.70;99.90;;;;;;5049710;28;20037;-64
2023/01/22 06:09:23;;;;;;;8.63;5.55;;;0.70;99.90;;;;;;5031018;28;20792;-64
2023/01/22 06:11:49;;;;;;;6.53;5.28;;;0.70;99.90;;;;;;5031409;28;20052;-65
2023/01/22 06:14:15;;;;;;;8.85;5.43;;;0.70;99.90;;;;;;5049282;28;20477;-64
2023/01/22 06:16:40;;;;;;;6.82;4.90;;;0.70;99.90;;;;;;5049662;28;21406;-64
2023/01/22 06:19:06;;;;;;;7.78;6.30;;;0.60;99.90;;;;;;5029350;28;20046;-65
2023/01/22 06:21:32;;;;;;;7.50;4.78;;;0.60;99.90;;;;;;5049244;28;20049;-65
2023/01/22 06:23:58;;;;;;;11.65;5.70;;;0.60;99.90;;;;;;5014719;28;20454;-65
2023/01/22 06:26:23;;;;;;;7.07;5.93;;;0.60;99.90;;;;;;5047749;28;20044;-66
2023/01/22 06:28:49;;;;;;;8.63;5.63;;;0.50;99.90;;;;;;5022922;28;20560;-65
2023/01/22 06:31:15;;;;;;;7.72;6.00;;;0.60;99.90;;;;;;5047020;28;20039;-65
2023/01/22 06:33:41;;;;;;;7.00;5.55;;;0.60;99.90;;;;;;5045742;28;20041;-65
2023/01/22 06:36:07;;;;;;;6.38;5.18;;;0.60;99.90;;;;;;5046276;28;20048;-64
2023/01/22 06:38:33;;;;;;;7.22;5.43;;;0.60;99.90;;;;;;5027605;28;20045;-64
2023/01/22 06:40:59;;;;;;;6.70;5.18;;;0.50;99.90;;;;;;5040485;28;20458;-64
2023/01/22 06:43:26;;;;;;;8.32;5.63;;;0.60;99.90;;;;;;5044500;28;20060;-65
2023/01/22 06:45:52;;;;;;;6.63;5.57;;;0.60;99.90;;;;;;5046898;28;20087;-64
2023/01/22 06:48:18;;;;;;;7.15;5.72;;;0.60;99.90;;;;;;5045300;28;20307;-65
2023/01/22 06:50:44;;;;;;;8.05;6.10;;;0.60;99.90;;;;;;5047443;28;20044;-64
2023/01/22 06:53:10;;;;;;;8.43;6.03;;;0.60;99.90;;;;;;5044832;28;20159;-64
2023/01/22 06:55:36;;;;;;;8.18;5.68;;;0.60;99.90;;;;;;5047465;28;20072;-64
2023/01/22 06:58:02;;;;;;;9.18;6.00;;;0.50;99.90;;;;;;5047406;28;20144;-64
2023/01/22 07:00:28;;;;;;;6.93;6.00;;;0.60;99.90;;;;;;5047219;28;20127;-65
2023/01/22 07:02:53;;;;;;;9.85;5.88;;;0.50;99.90;;;;;;5027548;28;20080;-65
2023/01/22 07:05:20;;;;;;;8.23;5.90;;;0.60;99.90;;;;;;5043434;28;20147;-65
2023/01/22 07:07:46;;;;;;;7.07;5.88;;;0.60;99.90;;;;;;5043266;28;20052;-64
2023/01/22 07:10:13;;;;;;;8.07;5.90;;;0.50;99.90;;;;;;5044557;28;20388;-65
2023/01/22 07:12:39;;;;;;;6.30;4.82;;;0.70;99.90;;;;;;5043588;28;20160;-65
2023/01/22 07:15:06;;;;;;;6.80;5.57;;;0.60;99.90;;;;;;5041797;28;20100;-65
2023/01/22 07:17:33;;;;;;;7.35;5.70;;;0.50;99.90;;;;;;5042664;28;20040;-65
2023/01/22 07:19:59;;;;;;;5.90;5.13;;;0.60;99.90;;;;;;5040305;28;20037;-64
2023/01/22 07:22:25;;;;;;;7.63;5.72;;;0.50;99.90;;;;;;5043033;28;20041;-66
2023/01/22 07:24:51;;;;;;;7.30;5.72;;;0.60;99.90;;;;;;5023264;28;20465;-65
2023/01/22 07:27:17;;;;;;;10.30;6.53;;;0.60;99.90;;;;;;5043992;28;20461;-64
2023/01/22 07:29:42;;;;;;;7.85;6.45;;;0.50;99.90;;;;;;5045817;28;20043;-65
2023/01/22 07:32:08;;;;;;;8.60;5.78;;;0.60;99.90;;;;;;5029647;28;20144;-64
2023/01/22 07:34:36;;;;;;;9.18;6.55;;;0.50;99.90;;;;;;5044051;28;20041;-64
2023/01/22 07:37:02;;;;;;;9.15;6.20;;;0.50;99.90;;;;;;5022653;28;20147;-65
2023/01/22 07:39:28;;;;;;;9.60;6.10;;;0.50;99.90;;;;;;5025779;28;20061;-64
2023/01/22 07:41:54;;;;;;;7.85;6.35;;;0.50;99.90;;;;;;5030237;28;20040;-65
2023/01/22 07:44:20;;;;;;;8.77;6.63;;;0.50;99.90;;;;;;5047055;28;20747;-65
2023/01/22 07:46:45;;;;;;;8.60;6.32;;;0.50;99.90;;;;;;5048384;28;20443;-64
2023/01/22 07:49:11;;;;;;;10.35;6.78;;;0.60;99.90;;;;;;5045674;28;20047;-65
2023/01/22 07:51:37;;;;;;;8.95;6.13;;;0.50;99.90;;;;;;5026889;28;20055;-65
2023/01/22 07:54:03;;;;;;;8.75;5.78;;;0.50;99.90;;;;;;5046562;28;20095;-65
2023/01/22 07:56:29;;;;;;;9.90;6.43;;;0.50;99.90;;;;;;5048962;28;20036;-64
2023/01/22 07:58:54;;;;;;;12.40;6.80;;;0.60;99.90;;;;;;5048813;28;20197;-64
2023/01/22 08:01:20;;;;;;;9.02;6.97;;;0.50;99.90;;;;;;5050434;28;20033;-64
2023/01/22 08:03:46;;;;;;;9.50;6.60;;;0.50;99.90;;;;;;5048939;28;20033;-65
2023/01/22 08:06:16;;;;;;;12.93;6.95;;;0.50;99.90;;;;;;5049977;28;20052;-64
2023/01/22 08:08:42;;;;;;;7.75;6.45;;;0.50;99.90;;;;;;5050026;28;20501;-64
2023/01/22 08:11:08;;;;;;;8.82;6.82;;;0.50;99.90;;;;;;5030912;28;20204;-65
2023/01/22 08:13:33;;;;;;;8.65;6.65;;;0.50;99.90;;;;;;5051326;28;20041;-63
2023/01/22 08:15:59;;;;;;;8.40;6.60;;;0.50;99.90;;;;;;5029906;28;20037;-63
2023/01/22 08:18:25;;;;;;;11.07;7.03;;;0.50;99.90;;;;;;5049804;28;20063;-64
2023/01/22 08:20:51;;;;;;;9.45;6.70;;;0.60;99.90;;;;;;5049313;28;20045;-64
2023/01/22 08:23:16;;;;;;;8.23;6.57;;;0.60;99.90;;;;;;5049371;28;20242;-64
2023/01/22 08:25:42;;;;;;;8.82;6.20;;;0.50;99.90;;;;;;5029725;28;20041;-64
2023/01/22 08:28:08;;;;;;;8.20;6.90;;;0.50;99.90;;;;;;5030386;28;20041;-64
2023/01/22 08:30:35;;;;;;;8.52;6.63;;;0.60;99.90;;;;;;5047645;28;20141;-64
2023/01/22 08:33:03;;;;;;;11.80;7.18;;;0.60;99.90;;;;;;5032778;28;20119;-64
2023/01/22 08:35:30;;;;;;;7.43;6.15;;;0.60;99.90;;;;;;5016662;28;20041;-64
2023/01/22 08:38:00;;;;;;;7.97;6.60;;;0.60;99.90;;;;;;5050540;28;20464;-64
2023/01/22 08:40:26;;;;;;;9.70;6.78;;;0.70;99.90;;;;;;5040030;28;20098;-65
2023/01/22 08:42:53;;;;;;;9.48;6.80;;;0.60;99.90;;;;;;5027611;28;20076;-64
2023/01/22 08:45:19;;;;;;;10.23;6.05;;;0.70;99.90;;;;;;5030008;28;20041;-64
2023/01/22 08:47:45;;;;;;;7.80;6.15;;;0.60;99.90;;;;;;5032173;28;20097;-64
2023/01/22 08:50:11;;;;;;;10.05;7.32;;;0.70;99.90;;;;;;5047115;28;20072;-64
2023/01/22 08:52:37;;;;;;;10.65;6.88;;;0.70;99.90;;;;;;5049657;28;20462;-65
2023/01/22 08:55:05;;;;;;;9.00;6.80;;;0.70;99.90;;;;;;5031293;28;20048;-65
2023/01/22 08:57:31;;;;;;;9.23;6.93;;;0.70;99.90;;;;;;5046424;28;20076;-64
2023/01/22 08:59:57;;;;;;;10.18;7.00;;;0.70;99.90;;;;;;5031843;28;20049;-64
2023/01/22 09:02:23;;;;;;;9.82;7.15;;;0.80;99.90;;;;;;5046658;28;20037;-64
2023/01/22 09:04:48;;;;;;;8.88;7.32;;;0.70;99.90;;;;;;5027617;28;20037;-64
2023/01/22 09:07:14;;;;;;;9.85;6.82;;;0.80;99.90;;;;;;5046876;28;20091;-64
2023/01/22 09:09:40;;;;;;;9.07;6.75;;;0.80;99.90;;;;;;5050539;28;20095;-64
2023/01/22 09:12:05;;;;;;;9.85;7.13;;;0.80;99.90;;;;;;5031960;28;20033;-64
2023/01/22 09:14:31;;;;;;;9.13;6.88;;;0.80;99.90;;;;;;5050175;28;20032;-64
2023/01/22 09:16:57;;;;;;;8.85;6.50;;;0.80;99.90;;;;;;5029897;28;20056;-64
2023/01/22 09:19:23;;;;;;;7.45;5.90;;;0.80;99.90;;;;;;5029653;28;20048;-64
2023/01/22 09:21:48;;;;;;;7.85;5.55;;;0.80;99.90;;;;;;5049045;28;20049;-65
2023/01/22 09:24:14;;;;;;;8.07;6.43;;;0.80;99.90;;;;;;5027978;28;20048;-64
2023/01/22 09:26:41;;;;;;;10.68;6.15;;;0.90;99.90;;;;;;5047402;28;20081;-63
2023/01/22 09:29:07;;;;;;;7.32;5.80;;;0.90;99.90;;;;;;5046851;28;20392;-65
2023/01/22 09:31:34;;;;;;;9.10;6.55;;;0.90;99.90;;;;;;5047409;28;20049;-64
2023/01/22 09:34:00;;;;;;;10.65;6.60;;;1.00;99.90;;;;;;5031699;28;20606;-65
2023/01/22 09:36:26;;;;;;;9.85;7.22;;;1.00;99.90;;;;;;5032088;28;20049;-64
2023/01/22 09:38:52;;;;;;;7.25;6.05;;;1.00;99.90;;;;;;5050033;28;20044;-65
2023/01/22 09:41:30;;;;;;;9.52;7.10;;;1.10;99.90;;;;;;5031200;28;20045;-64
2023/01/22 09:44:18;;;;;;;8.43;6.80;;;1.10;99.90;;;;;;5049923;28;20045;-64
2023/01/22 09:46:47;;;;;;;11.35;6.50;;;1.10;99.90;;;;;;5042303;28;20060;-64
2023/01/22 09:49:19;;;;;;;8.82;6.47;;;1.20;99.90;;;;;;5049069;28;20052;-64
2023/01/22 09:51:53;;;;;;;8.10;6.53;;;1.30;99.90;;;;;;5047881;28;20097;-64
2023/01/22 09:54:19;;;;;;;10.95;6.82;;;1.30;99.90;;;;;;5049400;28;20052;-64
2023/01/22 09:56:48;;;;;;;9.25;5.95;;;1.40;99.90;;;;;;5047575;28;20469;-64
2023/01/22 09:59:51;;;;;;;6.47;5.47;;;1.40;99.90;;;;;;5047881;28;20037;-64
2023/01/22 10:02:35;;;;;;;9.93;6.43;;;1.40;99.90;;;;;;5043645;28;20039;-65
2023/01/22 10:05:29;;;;;;;7.50;6.75;;;1.50;99.90;;;;;;5040512;28;20045;-64
2023/01/22 10:08:18;;;;;;;9.07;6.30;;;1.50;99.90;;;;;;5045685;28;20060;-65
2023/01/22 10:10:44;;;;;;;6.63;5.93;;;1.50;99.90;;;;;;5046439;28;20107;-65
2023/01/22 10:13:26;;;;;;;11.82;7.35;;;1.50;99.90;;;;;;5045346;28;20045;-64
2023/01/22 10:15:54;;;;;;;7.18;6.40;;;1.60;99.90;;;;;;5031287;28;20604;-64
2023/01/22 10:18:46;;;;;;;9.10;6.53;;;1.50;99.90;;;;;;5029824;28;20041;-64
2023/01/22 10:21:40;;;;;;;9.63;6.00;;;1.50;99.90;;;;;;5047874;28;20061;-65
2023/01/22 10:24:09;;;;;;;7.97;5.80;;;1.50;99.90;;;;;;5048182;28;20029;-64
2023/01/22 10:26:38;;;;;;;9.13;6.65;;;1.50;99.90;;;;;;5030279;28;20163;-64
2023/01/22 10:29:12;;;;;;;8.95;7.13;;;1.50;99.90;;;;;;5029234;28;20037;-64
2023/01/22 10:31:45;;;;;;;8.30;7.50;;;1.50;99.90;;;;;;5024776;28;20053;-65
2023/01/22 10:34:37;;;;;;;9.20;6.55;;;1.50;99.90;;;;;;5024788;28;20076;-65
2023/01/22 10:37:14;;;;;;;8.18;6.45;;;1.50;99.90;;;;;;5042470;28;20086;-64
2023/01/22 10:39:49;;;;;;;10.57;6.78;;;1.60;99.90;;;;;;5045538;28;20211;-64
2023/01/22 10:42:19;;;;;;;;;;;1.50;99.90;;;;;;5031542;28;20037;-64
2023/01/22 10:44:46;;;;;;;8.88;6.88;;;1.50;99.90;;;;;;5045868;28;19979;-64
2023/01/22 10:47:26;;;;;;;10.18;8.65;;;1.50;99.90;;;;;;5046768;28;20764;-65
2023/01/22 10:50:04;;;;;;;8.90;7.68;;;1.60;99.90;;;;;;5027363;28;20041;-65
2023/01/22 10:52:40;;;;;;;10.18;7.35;;;1.60;99.90;;;;;;5025959;28;20060;-65
2023/01/22 10:55:20;;;;;;;11.40;6.95;;;1.70;99.90;;;;;;5029000;28;20032;-64
2023/01/22 10:57:53;;;;;;;9.98;8.27;;;1.80;99.90;;;;;;5029897;28;20396;-63
2023/01/22 11:00:24;;;;;;;14.20;8.50;;;1.70;99.90;;;;;;5045758;28;20044;-64
2023/01/22 11:02:50;;;;;;;12.07;7.60;;;1.80;99.90;;;;;;5045986;28;20051;-63
2023/01/22 11:05:24;;;;;;;9.90;7.28;;;1.80;99.90;;;;;;5029648;28;20037;-64
2023/01/22 11:08:15;;;;;;;8.65;6.72;;;1.90;99.90;;;;;;5033199;28;20443;-64
2023/01/22 11:11:06;;;;;;;9.30;7.68;;;1.90;99.90;;;;;;5017554;28;20079;-63
2023/01/22 11:13:44;;;;;;;9.75;7.68;;;1.90;99.90;;;;;;5048211;28;20033;-63
2023/01/22 11:16:16;;;;;;;10.70;7.30;;;1.90;99.90;;;;;;5049756;28;20037;-63
2023/01/22 11:18:58;;;;;;;11.05;8.07;;;1.90;99.90;;;;;;5047458;28;20045;-63
2023/01/22 11:21:28;;;;;;;11.23;7.40;;;1.90;99.90;;;;;;5047636;28;20053;-64
2023/01/22 11:24:05;;;;;;;11.07;7.30;;;1.90;99.90;;;;;;5048400;28;20470;-63
2023/01/22 11:26:39;;;;;;;8.68;7.68;;;1.90;99.90;;;;;;5048137;28;20076;-65
2023/01/22 11:29:32;;;;;;;9.48;7.55;;;1.90;99.90;;;;;;5048111;28;20037;-63
2023/01/22 11:32:16;;;;;;;11.02;8.65;;;1.90;99.90;;;;;;5048323;28;21402;-63
2023/01/22 11:34:56;;;;;;;11.40;8.18;;;1.90;99.90;;;;;;5026806;28;20048;-63
2023/01/22 11:37:53;;;;;;;10.15;8.90;;;1.90;99.90;;;;;;5047993;28;20036;-64
2023/01/22 11:40:30;;;;;;;10.20;8.30;;;2.00;99.90;;;;;;5030096;28;20075;-64
2023/01/22 11:43:21;;;;;;;12.35;8.60;;;2.00;99.90;;;;;;5044823;28;20036;-63
2023/01/22 11:45:53;;;;;;;11.20;8.73;;;2.10;99.90;;;;;;5046706;28;20049;-65
2023/01/22 11:48:40;;;;;;;9.25;7.32;;;2.10;99.90;;;;;;5045919;28;20136;-65
2023/01/22 11:51:22;;;;;;;9.65;7.80;;;2.10;99.90;;;;;;5047322;28;20107;-64
2023/01/22 11:53:53;;;;;;;9.52;7.80;;;2.10;99.90;;;;;;5044338;28;20136;-64
2023/01/22 11:56:50;;;;;;;11.07;8.30;;;2.20;99.90;;;;;;5041009;28;20045;-65
2023/01/22 11:59:30;;;;;;;16.88;9.52;;;2.20;99.90;;;;;;5042788;28;21584;-65
2023/01/22 12:02:24;;;;;;;11.52;7.88;;;2.20;99.90;;;;;;5045841;28;20076;-64
2023/01/22 12:05:07;;;;;;;10.07;7.97;;;2.20;99.90;;;;;;5012428;28;20045;-64
2023/01/22 12:07:45;;;;;;;8.18;7.35;;;2.30;99.90;;;;;;5047072;28;20037;-64
2023/01/22 12:10:40;;;;;;;8.82;7.20;;;2.20;99.90;;;;;;5030995;28;20067;-64
2023/01/22 12:13:20;;;;;;;10.95;8.25;;;2.20;99.90;;;;;;5048949;28;20040;-64
2023/01/22 12:15:51;;;;;;;10.00;8.20;;;2.20;99.90;;;;;;5048567;28;20044;-64
2023/01/22 12:18:44;;;;;;;9.20;7.80;;;2.30;99.90;;;;;;5048588;28;20047;-64
2023/01/22 12:21:42;;;;;;;10.30;7.90;;;2.30;99.90;;;;;;5045404;28;20061;-63
2023/01/22 12:24:30;;;;;;;10.55;8.50;;;2.40;99.90;;;;;;5048438;28;20033;-63
2023/01/22 12:27:04;;;;;;;10.63;8.82;;;2.50;99.90;;;;;;5030074;28;20412;-65
2023/01/22 12:29:42;;;;;;;9.07;7.35;;;2.50;99.90;;;;;;5048795;28;20045;-65
2023/01/22 12:32:11;;;;;;;9.60;7.60;;;2.70;99.90;;;;;;5046317;28;20481;-64
2023/01/22 12:35:07;;;;;;;12.38;8.07;;;2.60;99.90;;;;;;5048141;28;20045;-64
2023/01/22 12:37:45;;;;;;;11.35;7.70;;;2.70;99.90;;;;;;5048819;28;20435;-63
2023/01/22 12:41:06;;;;;;;9.85;7.78;;;2.60;99.90;;;;;;5042838;28;20048;-64
2023/01/22 12:43:53;;;;;;;12.40;8.05;;;2.60;99.90;;;;;;5034001;28;20473;-64
2023/01/22 12:46:49;;;;;;;12.07;8.73;;;2.60;99.90;;;;;;5035348;28;20088;-64
2023/01/22 12:49:15;;;;;;;12.68;7.60;;;2.60;99.90;;;;;;5051850;28;20045;-64
2023/01/22 12:51:50;;;;;;;8.75;7.40;;;2.60;99.90;;;;;;5018604;28;20044;-64
2023/01/22 12:54:25;;;;;;;10.77;9.23;;;2.50;99.90;;;;;;5051803;28;20033;-64
2023/01/22 12:56:57;;;;;;;;;;;2.50;99.90;;;;;;5053118;28;20048;-63
2023/01/22 12:59:35;;;;;;;10.32;8.27;;;2.50;99.90;;;;;;5051638;28;19924;-64
2023/01/22 13:02:27;;;;;;;9.90;8.60;;;2.40;99.90;;;;;;5052224;28;20064;-64
2023/01/22 13:04:53;;;;;;;10.15;7.97;;;2.50;99.90;;;;;;5051674;28;20435;-64
2023/01/22 13:07:29;;;;;;;12.40;8.30;;;2.50;99.90;;;;;;5044646;28;20186;-64
2023/01/22 13:10:03;;;;;;;12.18;8.23;;;2.50;99.90;;;;;;5044559;28;20037;-65